sensor_id;sensor_type;location;lat;lon;timestamp;temperature;humidity
22917;DHT22;11624;53.250;7.456;2023-05-06T00:00:24;18.35;58.16
22917;DHT22;11624;53.250;7.456;2023-05-06T00:02:52;18.36;58.14
22917;DHT22;11624;53.250;7.456;2023-05-06T00:05:21;18.36;58.13
22917;DHT22;11624;53.250;7.456;2023-05-06T00:07:49;18.29;58.22
22917;DHT22;11624;53.250;7.456;2023-05-06T00:10:18;18.29;58.27
22917;DHT22;11624;53.250;7.456;2023-05-06T00:12:48;18.28;58.21
22917;DHT22;11624;53.250;7.456;2023-05-06T00:15:17;18.30;58.18
22917;DHT22;11624;53.250;7.456;2023-05-06T00:17:45;18.33;58.17
22917;DHT22;11624;53.250;7.456;2023-05-06T00:20:13;18.34;58.14
22917;DHT22;11624;53.250;7.456;2023-05-06T00:22:41;18.30;58.15
22917;DHT22;11624;53.250;7.456;2023-05-06T00:25:10;18.32;58.22
22917;DHT22;11624;53.250;7.456;2023-05-06T00:27:38;18.32;58.24
22917;DHT22;11624;53.250;7.456;2023-05-06T00:30:09;18.35;58.00
22917;DHT22;11624;53.250;7.456;2023-05-06T00:32:38;18.27;58.35
22917;DHT22;11624;53.250;7.456;2023-05-06T00:35:07;18.27;58.46
22917;DHT22;11624;53.250;7.456;2023-05-06T00:37:36;18.30;58.48
22917;DHT22;11624;53.250;7.456;2023-05-06T00:40:05;18.35;58.44
22917;DHT22;11624;53.250;7.456;2023-05-06T00:42:34;18.40;58.29
22917;DHT22;11624;53.250;7.456;2023-05-06T00:45:03;18.41;58.22
22917;DHT22;11624;53.250;7.456;2023-05-06T00:47:33;18.42;58.15
22917;DHT22;11624;53.250;7.456;2023-05-06T00:50:02;18.39;58.23
22917;DHT22;11624;53.250;7.456;2023-05-06T00:52:30;18.33;58.40
22917;DHT22;11624;53.250;7.456;2023-05-06T00:54:59;18.32;58.45
22917;DHT22;11624;53.250;7.456;2023-05-06T00:57:27;18.34;58.44
22917;DHT22;11624;53.250;7.456;2023-05-06T00:59:56;18.37;58.47
22917;DHT22;11624;53.250;7.456;2023-05-06T01:02:24;18.40;58.46
22917;DHT22;11624;53.250;7.456;2023-05-06T01:05:14;18.42;58.31
22917;DHT22;11624;53.250;7.456;2023-05-06T01:07:46;18.44;58.21
22917;DHT22;11624;53.250;7.456;2023-05-06T01:10:22;18.46;58.11
22917;DHT22;11624;53.250;7.456;2023-05-06T01:12:57;18.49;58.09
22917;DHT22;11624;53.250;7.456;2023-05-06T01:15:30;18.52;58.25
22917;DHT22;11624;53.250;7.456;2023-05-06T01:18:01;18.55;58.35
22917;DHT22;11624;53.250;7.456;2023-05-06T01:20:33;18.59;58.22
22917;DHT22;11624;53.250;7.456;2023-05-06T01:23:10;18.63;57.84
22917;DHT22;11624;53.250;7.456;2023-05-06T01:25:39;18.66;58.22
22917;DHT22;11624;53.250;7.456;2023-05-06T01:28:08;18.69;58.19
22917;DHT22;11624;53.250;7.456;2023-05-06T01:30:44;18.68;57.80
22917;DHT22;11624;53.250;7.456;2023-05-06T01:33:18;18.66;57.80
22917;DHT22;11624;53.250;7.456;2023-05-06T01:35:57;18.66;57.76
22917;DHT22;11624;53.250;7.456;2023-05-06T01:38:36;18.63;57.62
22917;DHT22;11624;53.250;7.456;2023-05-06T01:41:14;18.57;57.78
22917;DHT22;11624;53.250;7.456;2023-05-06T01:43:44;18.52;58.08
22917;DHT22;11624;53.250;7.456;2023-05-06T01:46:18;18.49;58.00
22917;DHT22;11624;53.250;7.456;2023-05-06T01:48:49;18.47;58.00
22917;DHT22;11624;53.250;7.456;2023-05-06T01:51:22;18.43;58.25
22917;DHT22;11624;53.250;7.456;2023-05-06T01:53:52;18.46;58.16
22917;DHT22;11624;53.250;7.456;2023-05-06T01:56:21;18.41;58.26
22917;DHT22;11624;53.250;7.456;2023-05-06T01:58:50;18.34;58.48
22917;DHT22;11624;53.250;7.456;2023-05-06T02:01:18;18.29;58.54
22917;DHT22;11624;53.250;7.456;2023-05-06T02:03:46;18.27;58.56
22917;DHT22;11624;53.250;7.456;2023-05-06T02:06:15;18.27;58.58
22917;DHT22;11624;53.250;7.456;2023-05-06T02:08:44;18.29;58.51
22917;DHT22;11624;53.250;7.456;2023-05-06T02:11:18;18.28;58.47
22917;DHT22;11624;53.250;7.456;2023-05-06T02:13:49;18.21;58.74
22917;DHT22;11624;53.250;7.456;2023-05-06T02:16:17;18.13;59.01
22917;DHT22;11624;53.250;7.456;2023-05-06T02:18:48;18.15;59.06
22917;DHT22;11624;53.250;7.456;2023-05-06T02:21:16;18.17;59.06
22917;DHT22;11624;53.250;7.456;2023-05-06T02:23:45;18.21;59.00
22917;DHT22;11624;53.250;7.456;2023-05-06T02:26:13;18.26;58.88
22917;DHT22;11624;53.250;7.456;2023-05-06T02:28:43;18.28;58.64
22917;DHT22;11624;53.250;7.456;2023-05-06T02:31:13;18.28;58.65
22917;DHT22;11624;53.250;7.456;2023-05-06T02:33:42;18.29;58.52
22917;DHT22;11624;53.250;7.456;2023-05-06T02:36:10;18.28;58.43
22917;DHT22;11624;53.250;7.456;2023-05-06T02:38:39;18.27;58.34
22917;DHT22;11624;53.250;7.456;2023-05-06T02:41:07;18.24;58.22
22917;DHT22;11624;53.250;7.456;2023-05-06T02:43:36;18.21;57.96
22917;DHT22;11624;53.250;7.456;2023-05-06T02:46:06;18.14;57.87
22917;DHT22;11624;53.250;7.456;2023-05-06T02:48:34;18.08;57.86
22917;DHT22;11624;53.250;7.456;2023-05-06T02:51:03;18.00;57.85
22917;DHT22;11624;53.250;7.456;2023-05-06T02:53:32;17.95;57.94
22917;DHT22;11624;53.250;7.456;2023-05-06T02:56:00;17.92;58.05
22917;DHT22;11624;53.250;7.456;2023-05-06T02:58:28;17.92;58.14
22917;DHT22;11624;53.250;7.456;2023-05-06T03:00:56;17.89;58.22
22917;DHT22;11624;53.250;7.456;2023-05-06T03:03:26;17.85;58.03
22917;DHT22;11624;53.250;7.456;2023-05-06T03:05:55;17.82;58.06
22917;DHT22;11624;53.250;7.456;2023-05-06T03:08:23;17.81;58.02
22917;DHT22;11624;53.250;7.456;2023-05-06T03:10:51;17.77;58.07
22917;DHT22;11624;53.250;7.456;2023-05-06T03:13:20;17.77;58.08
22917;DHT22;11624;53.250;7.456;2023-05-06T03:15:51;17.70;58.13
22917;DHT22;11624;53.250;7.456;2023-05-06T03:18:21;17.63;58.41
22917;DHT22;11624;53.250;7.456;2023-05-06T03:20:51;17.67;58.32
22917;DHT22;11624;53.250;7.456;2023-05-06T03:23:19;17.70;58.30
22917;DHT22;11624;53.250;7.456;2023-05-06T03:25:48;17.72;58.37
22917;DHT22;11624;53.250;7.456;2023-05-06T03:28:18;17.74;58.38
22917;DHT22;11624;53.250;7.456;2023-05-06T03:30:47;17.76;58.37
22917;DHT22;11624;53.250;7.456;2023-05-06T03:33:16;17.76;58.40
22917;DHT22;11624;53.250;7.456;2023-05-06T03:35:44;17.69;58.51
22917;DHT22;11624;53.250;7.456;2023-05-06T03:38:14;17.67;58.66
22917;DHT22;11624;53.250;7.456;2023-05-06T03:40:49;17.66;58.67
22917;DHT22;11624;53.250;7.456;2023-05-06T03:43:17;17.60;58.72
22917;DHT22;11624;53.250;7.456;2023-05-06T03:45:49;17.52;58.81
22917;DHT22;11624;53.250;7.456;2023-05-06T03:48:17;17.47;58.83
22917;DHT22;11624;53.250;7.456;2023-05-06T03:50:45;17.45;58.79
22917;DHT22;11624;53.250;7.456;2023-05-06T03:53:16;17.39;58.75
22917;DHT22;11624;53.250;7.456;2023-05-06T03:55:46;17.30;58.91
22917;DHT22;11624;53.250;7.456;2023-05-06T03:58:15;17.29;58.93
22917;DHT22;11624;53.250;7.456;2023-05-06T04:00:45;17.22;58.95
22917;DHT22;11624;53.250;7.456;2023-05-06T04:03:13;17.11;59.07
22917;DHT22;11624;53.250;7.456;2023-05-06T04:05:45;17.06;59.16
22917;DHT22;11624;53.250;7.456;2023-05-06T04:08:16;17.08;59.08
22917;DHT22;11624;53.250;7.456;2023-05-06T04:10:45;17.07;59.17
22917;DHT22;11624;53.250;7.456;2023-05-06T04:13:20;17.06;59.15
22917;DHT22;11624;53.250;7.456;2023-05-06T04:15:49;17.08;59.08
22917;DHT22;11624;53.250;7.456;2023-05-06T04:18:22;17.05;59.16
22917;DHT22;11624;53.250;7.456;2023-05-06T04:21:00;16.99;59.18
22917;DHT22;11624;53.250;7.456;2023-05-06T04:23:32;16.95;58.99
22917;DHT22;11624;53.250;7.456;2023-05-06T04:26:00;16.90;59.25
22917;DHT22;11624;53.250;7.456;2023-05-06T04:28:31;16.86;59.25
22917;DHT22;11624;53.250;7.456;2023-05-06T04:30:59;16.81;59.29
22917;DHT22;11624;53.250;7.456;2023-05-06T04:33:38;16.80;59.30
22917;DHT22;11624;53.250;7.456;2023-05-06T04:36:10;16.81;59.35
22917;DHT22;11624;53.250;7.456;2023-05-06T04:38:46;16.81;59.39
22917;DHT22;11624;53.250;7.456;2023-05-06T04:41:14;16.81;59.41
22917;DHT22;11624;53.250;7.456;2023-05-06T04:43:43;16.85;59.37
22917;DHT22;11624;53.250;7.456;2023-05-06T04:46:17;16.81;59.36
22917;DHT22;11624;53.250;7.456;2023-05-06T04:48:46;16.78;59.41
22917;DHT22;11624;53.250;7.456;2023-05-06T04:51:16;16.80;59.45
22917;DHT22;11624;53.250;7.456;2023-05-06T04:53:46;16.76;59.40
22917;DHT22;11624;53.250;7.456;2023-05-06T04:56:14;16.67;59.69
22917;DHT22;11624;53.250;7.456;2023-05-06T04:58:43;16.70;59.78
22917;DHT22;11624;53.250;7.456;2023-05-06T05:01:12;16.82;59.61
22917;DHT22;11624;53.250;7.456;2023-05-06T05:03:40;16.93;59.61
22917;DHT22;11624;53.250;7.456;2023-05-06T05:06:08;17.05;59.57
22917;DHT22;11624;53.250;7.456;2023-05-06T05:08:37;17.18;59.44
22917;DHT22;11624;53.250;7.456;2023-05-06T05:11:08;17.28;59.40
22917;DHT22;11624;53.250;7.456;2023-05-06T05:13:37;17.30;59.26
22917;DHT22;11624;53.250;7.456;2023-05-06T05:16:05;17.29;59.25
22917;DHT22;11624;53.250;7.456;2023-05-06T05:18:36;17.34;59.28
22917;DHT22;11624;53.250;7.456;2023-05-06T05:21:12;17.38;59.14
22917;DHT22;11624;53.250;7.456;2023-05-06T05:23:40;17.41;59.10
22917;DHT22;11624;53.250;7.456;2023-05-06T05:26:09;17.35;59.04
22917;DHT22;11624;53.250;7.456;2023-05-06T05:28:39;17.39;59.11
22917;DHT22;11624;53.250;7.456;2023-05-06T05:31:07;17.41;58.99
22917;DHT22;11624;53.250;7.456;2023-05-06T05:33:37;17.40;59.13
22917;DHT22;11624;53.250;7.456;2023-05-06T05:36:10;17.30;59.48
22917;DHT22;11624;53.250;7.456;2023-05-06T05:38:42;17.36;59.53
22917;DHT22;11624;53.250;7.456;2023-05-06T05:41:12;17.45;59.45
22917;DHT22;11624;53.250;7.456;2023-05-06T05:43:43;17.58;59.58
22917;DHT22;11624;53.250;7.456;2023-05-06T05:46:11;17.77;59.51
22917;DHT22;11624;53.250;7.456;2023-05-06T05:48:41;17.84;59.24
22917;DHT22;11624;53.250;7.456;2023-05-06T05:51:10;17.91;59.23
22917;DHT22;11624;53.250;7.456;2023-05-06T05:53:38;17.91;59.28
22917;DHT22;11624;53.250;7.456;2023-05-06T05:56:06;17.91;59.28
22917;DHT22;11624;53.250;7.456;2023-05-06T05:58:37;17.89;59.27
22917;DHT22;11624;53.250;7.456;2023-05-06T06:01:05;17.95;59.29
22917;DHT22;11624;53.250;7.456;2023-05-06T06:03:34;17.92;59.08
22917;DHT22;11624;53.250;7.456;2023-05-06T06:06:04;17.95;59.25
22917;DHT22;11624;53.250;7.456;2023-05-06T06:08:33;18.04;59.11
22917;DHT22;11624;53.250;7.456;2023-05-06T06:11:02;18.15;58.79
22917;DHT22;11624;53.250;7.456;2023-05-06T06:13:38;18.15;58.74
22917;DHT22;11624;53.250;7.456;2023-05-06T06:16:06;18.15;58.81
22917;DHT22;11624;53.250;7.456;2023-05-06T06:18:35;18.17;58.92
22917;DHT22;11624;53.250;7.456;2023-05-06T06:21:03;18.17;58.97
22917;DHT22;11624;53.250;7.456;2023-05-06T06:23:31;18.29;59.15
22917;DHT22;11624;53.250;7.456;2023-05-06T06:26:01;18.41;59.25
22917;DHT22;11624;53.250;7.456;2023-05-06T06:28:31;18.39;59.12
22917;DHT22;11624;53.250;7.456;2023-05-06T06:31:01;18.40;59.12
22917;DHT22;11624;53.250;7.456;2023-05-06T06:33:29;18.44;59.04
22917;DHT22;11624;53.250;7.456;2023-05-06T06:35:57;18.57;59.17
22917;DHT22;11624;53.250;7.456;2023-05-06T06:38:25;18.72;59.42
22917;DHT22;11624;53.250;7.456;2023-05-06T06:40:53;18.72;59.38
22917;DHT22;11624;53.250;7.456;2023-05-06T06:43:21;18.55;59.36
22917;DHT22;11624;53.250;7.456;2023-05-06T06:45:56;18.59;59.86
22917;DHT22;11624;53.250;7.456;2023-05-06T06:48:26;18.74;59.62
22917;DHT22;11624;53.250;7.456;2023-05-06T06:50:54;19.00;60.25
22917;DHT22;11624;53.250;7.456;2023-05-06T06:53:23;19.28;59.81
22917;DHT22;11624;53.250;7.456;2023-05-06T06:55:51;19.50;59.61
22917;DHT22;11624;53.250;7.456;2023-05-06T06:58:19;19.73;59.15
22917;DHT22;11624;53.250;7.456;2023-05-06T07:00:47;19.96;58.83
22917;DHT22;11624;53.250;7.456;2023-05-06T07:03:15;20.12;58.63
22917;DHT22;11624;53.250;7.456;2023-05-06T07:05:47;20.18;57.86
22917;DHT22;11624;53.250;7.456;2023-05-06T07:08:15;20.22;58.01
22917;DHT22;11624;53.250;7.456;2023-05-06T07:10:43;20.35;57.93
22917;DHT22;11624;53.250;7.456;2023-05-06T07:13:11;20.40;57.80
22917;DHT22;11624;53.250;7.456;2023-05-06T07:15:39;20.41;57.90
22917;DHT22;11624;53.250;7.456;2023-05-06T07:18:08;20.60;58.21
22917;DHT22;11624;53.250;7.456;2023-05-06T07:20:36;20.72;57.57
22917;DHT22;11624;53.250;7.456;2023-05-06T07:23:06;20.62;57.18
22917;DHT22;11624;53.250;7.456;2023-05-06T07:25:34;20.69;57.23
22917;DHT22;11624;53.250;7.456;2023-05-06T07:28:02;20.68;57.34
22917;DHT22;11624;53.250;7.456;2023-05-06T07:30:30;20.76;57.46
22917;DHT22;11624;53.250;7.456;2023-05-06T07:32:59;20.84;57.25
22917;DHT22;11624;53.250;7.456;2023-05-06T07:35:27;20.94;57.17
22917;DHT22;11624;53.250;7.456;2023-05-06T07:37:56;20.92;56.68
22917;DHT22;11624;53.250;7.456;2023-05-06T07:40:37;20.93;56.75
22917;DHT22;11624;53.250;7.456;2023-05-06T07:43:06;21.08;56.90
22917;DHT22;11624;53.250;7.456;2023-05-06T07:45:34;21.15;56.70
22917;DHT22;11624;53.250;7.456;2023-05-06T07:48:03;21.25;56.25
22917;DHT22;11624;53.250;7.456;2023-05-06T07:50:31;21.23;55.94
22917;DHT22;11624;53.250;7.456;2023-05-06T07:53:00;21.29;56.10
22917;DHT22;11624;53.250;7.456;2023-05-06T07:55:29;21.27;55.90
22917;DHT22;11624;53.250;7.456;2023-05-06T07:58:02;21.42;56.02
22917;DHT22;11624;53.250;7.456;2023-05-06T08:00:30;21.59;55.96
22917;DHT22;11624;53.250;7.456;2023-05-06T08:02:58;21.76;55.81
22917;DHT22;11624;53.250;7.456;2023-05-06T08:05:26;21.73;54.81
22917;DHT22;11624;53.250;7.456;2023-05-06T08:07:54;21.65;54.75
22917;DHT22;11624;53.250;7.456;2023-05-06T08:10:23;21.68;54.84
22917;DHT22;11624;53.250;7.456;2023-05-06T08:12:51;21.63;54.49
22917;DHT22;11624;53.250;7.456;2023-05-06T08:15:20;21.65;54.68
22917;DHT22;11624;53.250;7.456;2023-05-06T08:17:48;21.75;54.78
22917;DHT22;11624;53.250;7.456;2023-05-06T08:20:16;21.81;54.71
22917;DHT22;11624;53.250;7.456;2023-05-06T08:22:45;21.95;54.81
22917;DHT22;11624;53.250;7.456;2023-05-06T08:25:13;22.14;54.39
22917;DHT22;11624;53.250;7.456;2023-05-06T08:27:41;22.32;53.89
22917;DHT22;11624;53.250;7.456;2023-05-06T08:30:10;22.35;53.91
22917;DHT22;11624;53.250;7.456;2023-05-06T08:32:40;22.47;53.72
22917;DHT22;11624;53.250;7.456;2023-05-06T08:35:08;22.64;53.62
22917;DHT22;11624;53.250;7.456;2023-05-06T08:37:37;22.68;52.41
22917;DHT22;11624;53.250;7.456;2023-05-06T08:40:14;22.58;52.52
22917;DHT22;11624;53.250;7.456;2023-05-06T08:42:45;22.66;52.98
22917;DHT22;11624;53.250;7.456;2023-05-06T08:45:14;22.87;52.72
22917;DHT22;11624;53.250;7.456;2023-05-06T08:47:45;22.84;52.03
22917;DHT22;11624;53.250;7.456;2023-05-06T08:50:13;22.99;52.24
22917;DHT22;11624;53.250;7.456;2023-05-06T08:52:42;23.21;51.91
22917;DHT22;11624;53.250;7.456;2023-05-06T08:55:11;23.11;50.92
22917;DHT22;11624;53.250;7.456;2023-05-06T08:57:40;23.22;51.26
22917;DHT22;11624;53.250;7.456;2023-05-06T09:00:10;23.44;51.31
22917;DHT22;11624;53.250;7.456;2023-05-06T09:02:38;23.64;50.75
22917;DHT22;11624;53.250;7.456;2023-05-06T09:05:10;23.74;50.35
22917;DHT22;11624;53.250;7.456;2023-05-06T09:07:39;23.76;50.14
22917;DHT22;11624;53.250;7.456;2023-05-06T09:10:11;23.80;49.82
22917;DHT22;11624;53.250;7.456;2023-05-06T09:12:40;23.91;49.55
22917;DHT22;11624;53.250;7.456;2023-05-06T09:15:09;24.01;49.45
22917;DHT22;11624;53.250;7.456;2023-05-06T09:17:38;23.97;49.02
22917;DHT22;11624;53.250;7.456;2023-05-06T09:20:12;23.91;48.73
22917;DHT22;11624;53.250;7.456;2023-05-06T09:22:40;24.00;49.08
22917;DHT22;11624;53.250;7.456;2023-05-06T09:25:09;23.97;48.21
22917;DHT22;11624;53.250;7.456;2023-05-06T09:27:38;23.66;48.61
22917;DHT22;11624;53.250;7.456;2023-05-06T09:30:08;23.70;49.19
22917;DHT22;11624;53.250;7.456;2023-05-06T09:32:38;23.75;48.96
22917;DHT22;11624;53.250;7.456;2023-05-06T09:35:07;23.81;48.71
22917;DHT22;11624;53.250;7.456;2023-05-06T09:37:38;23.79;48.43
22917;DHT22;11624;53.250;7.456;2023-05-06T09:40:07;23.50;48.44
22917;DHT22;11624;53.250;7.456;2023-05-06T09:42:36;23.66;49.37
22917;DHT22;11624;53.250;7.456;2023-05-06T09:45:07;23.90;49.40
22917;DHT22;11624;53.250;7.456;2023-05-06T09:47:36;24.24;49.37
22917;DHT22;11624;53.250;7.456;2023-05-06T09:50:08;24.41;46.78
22917;DHT22;11624;53.250;7.456;2023-05-06T09:52:38;24.48;46.93
22917;DHT22;11624;53.250;7.456;2023-05-06T09:55:07;24.77;47.42
22917;DHT22;11624;53.250;7.456;2023-05-06T09:57:39;24.91;47.08
22917;DHT22;11624;53.250;7.456;2023-05-06T10:00:08;25.13;46.16
22917;DHT22;11624;53.250;7.456;2023-05-06T10:02:41;25.38;45.05
22917;DHT22;11624;53.250;7.456;2023-05-06T10:05:10;25.72;46.02
22917;DHT22;11624;53.250;7.456;2023-05-06T10:07:41;26.22;43.30
22917;DHT22;11624;53.250;7.456;2023-05-06T10:10:10;26.34;42.45
22917;DHT22;11624;53.250;7.456;2023-05-06T10:12:39;26.17;42.41
22917;DHT22;11624;53.250;7.456;2023-05-06T10:15:08;25.86;41.41
22917;DHT22;11624;53.250;7.456;2023-05-06T10:17:38;25.66;42.61
22917;DHT22;11624;53.250;7.456;2023-05-06T10:20:09;25.76;43.44
22917;DHT22;11624;53.250;7.456;2023-05-06T10:22:50;25.97;42.45
22917;DHT22;11624;53.250;7.456;2023-05-06T10:25:28;26.46;43.71
22917;DHT22;11624;53.250;7.456;2023-05-06T10:27:57;26.48;39.45
22917;DHT22;11624;53.250;7.456;2023-05-06T10:30:28;26.30;41.55
22917;DHT22;11624;53.250;7.456;2023-05-06T10:32:58;26.62;41.16
22917;DHT22;11624;53.250;7.456;2023-05-06T10:35:39;26.86;40.84
22917;DHT22;11624;53.250;7.456;2023-05-06T10:38:13;27.27;39.56
22917;DHT22;11624;53.250;7.456;2023-05-06T10:40:43;27.44;38.76
22917;DHT22;11624;53.250;7.456;2023-05-06T10:43:19;27.32;38.75
22917;DHT22;11624;53.250;7.456;2023-05-06T10:45:58;27.73;39.39
22917;DHT22;11624;53.250;7.456;2023-05-06T10:48:27;27.98;37.18
22917;DHT22;11624;53.250;7.456;2023-05-06T10:51:24;27.93;37.05
22917;DHT22;11624;53.250;7.456;2023-05-06T10:53:59;27.82;38.16
22917;DHT22;11624;53.250;7.456;2023-05-06T10:56:30;28.03;38.20
22917;DHT22;11624;53.250;7.456;2023-05-06T10:59:04;28.02;36.69
22917;DHT22;11624;53.250;7.456;2023-05-06T11:01:34;27.91;36.32
22917;DHT22;11624;53.250;7.456;2023-05-06T11:04:07;27.99;36.58
22917;DHT22;11624;53.250;7.456;2023-05-06T11:06:40;27.76;36.34
22917;DHT22;11624;53.250;7.456;2023-05-06T11:09:17;27.69;37.92
22917;DHT22;11624;53.250;7.456;2023-05-06T11:11:52;27.88;37.06
22917;DHT22;11624;53.250;7.456;2023-05-06T11:14:30;28.38;36.43
22917;DHT22;11624;53.250;7.456;2023-05-06T11:16:59;28.05;33.73
22917;DHT22;11624;53.250;7.456;2023-05-06T11:19:29;27.79;35.06
22917;DHT22;11624;53.250;7.456;2023-05-06T11:21:58;28.25;35.26
22917;DHT22;11624;53.250;7.456;2023-05-06T11:24:29;27.88;34.08
22917;DHT22;11624;53.250;7.456;2023-05-06T11:26:58;28.29;35.60
22917;DHT22;11624;53.250;7.456;2023-05-06T11:29:27;28.84;32.96
22917;DHT22;11624;53.250;7.456;2023-05-06T11:31:55;28.98;34.53
22917;DHT22;11624;53.250;7.456;2023-05-06T11:34:26;29.33;33.00
22917;DHT22;11624;53.250;7.456;2023-05-06T11:36:57;29.34;32.15
22917;DHT22;11624;53.250;7.456;2023-05-06T11:39:30;29.70;32.86
22917;DHT22;11624;53.250;7.456;2023-05-06T11:42:06;30.08;32.01
22917;DHT22;11624;53.250;7.456;2023-05-06T11:44:35;30.16;29.39
22917;DHT22;11624;53.250;7.456;2023-05-06T11:47:05;30.02;29.68
22917;DHT22;11624;53.250;7.456;2023-05-06T11:49:35;30.24;31.31
22917;DHT22;11624;53.250;7.456;2023-05-06T11:52:04;30.68;29.39
22917;DHT22;11624;53.250;7.456;2023-05-06T11:54:35;29.93;29.81
22917;DHT22;11624;53.250;7.456;2023-05-06T11:57:05;29.56;31.37
22917;DHT22;11624;53.250;7.456;2023-05-06T11:59:34;29.59;31.73
22917;DHT22;11624;53.250;7.456;2023-05-06T12:02:04;29.86;30.93
22917;DHT22;11624;53.250;7.456;2023-05-06T12:04:39;29.92;31.04
22917;DHT22;11624;53.250;7.456;2023-05-06T12:07:10;29.75;31.04
22917;DHT22;11624;53.250;7.456;2023-05-06T12:09:42;29.23;31.39
22917;DHT22;11624;53.250;7.456;2023-05-06T12:12:14;29.44;31.84
22917;DHT22;11624;53.250;7.456;2023-05-06T12:14:43;29.93;31.41
22917;DHT22;11624;53.250;7.456;2023-05-06T12:17:12;30.20;31.10
22917;DHT22;11624;53.250;7.456;2023-05-06T12:19:41;30.60;30.97
22917;DHT22;11624;53.250;7.456;2023-05-06T12:22:16;30.51;29.38
22917;DHT22;11624;53.250;7.456;2023-05-06T12:24:47;30.19;30.71
22917;DHT22;11624;53.250;7.456;2023-05-06T12:27:28;29.88;31.32
22917;DHT22;11624;53.250;7.456;2023-05-06T12:29:56;29.74;32.64
22917;DHT22;11624;53.250;7.456;2023-05-06T12:32:24;29.95;33.50
22917;DHT22;11624;53.250;7.456;2023-05-06T12:34:52;29.78;32.02
22917;DHT22;11624;53.250;7.456;2023-05-06T12:37:26;29.34;31.51
22917;DHT22;11624;53.250;7.456;2023-05-06T12:39:56;28.90;32.92
22917;DHT22;11624;53.250;7.456;2023-05-06T12:42:25;28.93;34.11
22917;DHT22;11624;53.250;7.456;2023-05-06T12:44:53;29.15;32.73
22917;DHT22;11624;53.250;7.456;2023-05-06T12:47:23;29.07;33.34
22917;DHT22;11624;53.250;7.456;2023-05-06T12:49:53;28.93;33.51
22917;DHT22;11624;53.250;7.456;2023-05-06T12:52:22;28.69;34.49
22917;DHT22;11624;53.250;7.456;2023-05-06T12:54:51;28.79;33.78
22917;DHT22;11624;53.250;7.456;2023-05-06T12:57:20;28.73;33.59
22917;DHT22;11624;53.250;7.456;2023-05-06T12:59:49;28.27;34.23
22917;DHT22;11624;53.250;7.456;2023-05-06T13:02:17;28.44;34.34
22917;DHT22;11624;53.250;7.456;2023-05-06T13:04:45;28.33;33.67
22917;DHT22;11624;53.250;7.456;2023-05-06T13:07:13;28.33;34.35
22917;DHT22;11624;53.250;7.456;2023-05-06T13:09:41;28.48;35.05
22917;DHT22;11624;53.250;7.456;2023-05-06T13:12:10;29.07;33.86
22917;DHT22;11624;53.250;7.456;2023-05-06T13:14:40;29.17;32.74
22917;DHT22;11624;53.250;7.456;2023-05-06T13:17:08;28.80;32.54
22917;DHT22;11624;53.250;7.456;2023-05-06T13:19:37;28.38;33.71
22917;DHT22;11624;53.250;7.456;2023-05-06T13:22:05;28.01;34.44
22917;DHT22;11624;53.250;7.456;2023-05-06T13:24:33;27.64;35.04
22917;DHT22;11624;53.250;7.456;2023-05-06T13:27:02;27.60;35.24
22917;DHT22;11624;53.250;7.456;2023-05-06T13:29:30;27.52;34.44
22917;DHT22;11624;53.250;7.456;2023-05-06T13:31:59;27.49;35.56
22917;DHT22;11624;53.250;7.456;2023-05-06T13:34:27;27.37;35.72
22917;DHT22;11624;53.250;7.456;2023-05-06T13:36:56;27.15;36.29
22917;DHT22;11624;53.250;7.456;2023-05-06T13:39:25;27.15;36.20
22917;DHT22;11624;53.250;7.456;2023-05-06T13:41:53;26.94;36.08
22917;DHT22;11624;53.250;7.456;2023-05-06T13:44:21;27.02;36.70
22917;DHT22;11624;53.250;7.456;2023-05-06T13:46:50;27.16;36.28
22917;DHT22;11624;53.250;7.456;2023-05-06T13:49:20;27.15;36.68
22917;DHT22;11624;53.250;7.456;2023-05-06T13:51:48;27.00;36.37
22917;DHT22;11624;53.250;7.456;2023-05-06T13:54:16;26.96;37.32
22917;DHT22;11624;53.250;7.456;2023-05-06T13:56:44;26.98;37.62
22917;DHT22;11624;53.250;7.456;2023-05-06T13:59:12;26.90;37.44
22917;DHT22;11624;53.250;7.456;2023-05-06T14:01:41;26.77;36.88
22917;DHT22;11624;53.250;7.456;2023-05-06T14:04:09;26.65;37.27
22917;DHT22;11624;53.250;7.456;2023-05-06T14:06:39;26.70;37.40
22917;DHT22;11624;53.250;7.456;2023-05-06T14:09:09;26.52;37.53
22917;DHT22;11624;53.250;7.456;2023-05-06T14:11:38;26.57;37.27
22917;DHT22;11624;53.250;7.456;2023-05-06T14:14:07;26.52;38.36
22917;DHT22;11624;53.250;7.456;2023-05-06T14:16:35;26.49;38.30
22917;DHT22;11624;53.250;7.456;2023-05-06T14:19:03;26.48;38.30
22917;DHT22;11624;53.250;7.456;2023-05-06T14:24:01;26.50;37.91
22917;DHT22;11624;53.250;7.456;2023-05-06T14:26:33;26.37;38.10
22917;DHT22;11624;53.250;7.456;2023-05-06T14:29:01;26.31;38.79
22917;DHT22;11624;53.250;7.456;2023-05-06T14:31:30;26.37;38.46
22917;DHT22;11624;53.250;7.456;2023-05-06T14:34:00;26.31;38.89
22917;DHT22;11624;53.250;7.456;2023-05-06T14:36:28;26.22;38.73
22917;DHT22;11624;53.250;7.456;2023-05-06T14:38:56;26.05;38.88
22917;DHT22;11624;53.250;7.456;2023-05-06T14:41:26;25.95;39.06
22917;DHT22;11624;53.250;7.456;2023-05-06T14:43:54;25.80;39.22
22917;DHT22;11624;53.250;7.456;2023-05-06T14:46:22;25.76;39.23
22917;DHT22;11624;53.250;7.456;2023-05-06T14:48:54;25.81;39.09
22917;DHT22;11624;53.250;7.456;2023-05-06T14:51:22;25.81;39.17
22917;DHT22;11624;53.250;7.456;2023-05-06T14:53:53;25.77;39.57
22917;DHT22;11624;53.250;7.456;2023-05-06T14:56:21;25.67;39.63
22917;DHT22;11624;53.250;7.456;2023-05-06T14:58:50;25.56;40.09
22917;DHT22;11624;53.250;7.456;2023-05-06T15:01:18;25.49;40.14
22917;DHT22;11624;53.250;7.456;2023-05-06T15:03:47;25.39;40.19
22917;DHT22;11624;53.250;7.456;2023-05-06T15:06:16;25.29;40.57
22917;DHT22;11624;53.250;7.456;2023-05-06T15:08:44;25.17;40.75
22917;DHT22;11624;53.250;7.456;2023-05-06T15:11:13;25.03;41.28
22917;DHT22;11624;53.250;7.456;2023-05-06T15:13:41;24.89;42.29
22917;DHT22;11624;53.250;7.456;2023-05-06T15:16:10;24.75;42.97
22917;DHT22;11624;53.250;7.456;2023-05-06T15:18:38;24.54;43.99
22917;DHT22;11624;53.250;7.456;2023-05-06T15:21:07;24.36;44.90
22917;DHT22;11624;53.250;7.456;2023-05-06T15:23:35;24.20;45.73
22917;DHT22;11624;53.250;7.456;2023-05-06T15:26:04;24.12;47.29
22917;DHT22;11624;53.250;7.456;2023-05-06T15:28:32;24.00;47.89
22917;DHT22;11624;53.250;7.456;2023-05-06T15:31:01;23.87;48.14
22917;DHT22;11624;53.250;7.456;2023-05-06T15:33:31;23.79;48.47
22917;DHT22;11624;53.250;7.456;2023-05-06T15:35:59;23.70;49.02
22917;DHT22;11624;53.250;7.456;2023-05-06T15:38:27;23.65;49.12
22917;DHT22;11624;53.250;7.456;2023-05-06T15:40:55;23.53;49.50
22917;DHT22;11624;53.250;7.456;2023-05-06T15:43:23;23.47;49.70
22917;DHT22;11624;53.250;7.456;2023-05-06T15:45:55;23.44;49.97
22917;DHT22;11624;53.250;7.456;2023-05-06T15:48:28;23.42;50.31